createdAt,value
2018-07-26T00:01:58.168Z,14.40
2018-07-26T00:04:39.675Z,17.50
2018-07-26T00:07:21.481Z,17.60
2018-07-26T00:10:04.304Z,14.40
2018-07-26T00:12:45.902Z,11.90
2018-07-26T00:15:27.295Z,13.07
2018-07-26T00:18:08.952Z,11.30
2018-07-26T00:20:51.616Z,12.50
2018-07-26T00:23:34.276Z,11.17
2018-07-26T00:26:15.669Z,14.17
2018-07-26T00:28:57.163Z,12.47
2018-07-26T00:31:38.738Z,10.27
2018-07-26T00:34:20.512Z,9.90
2018-07-26T00:37:02.123Z,7.57
2018-07-26T00:39:44.886Z,8.63
2018-07-26T00:42:26.215Z,8.47
2018-07-26T00:45:08.643Z,9.10
2018-07-26T00:47:50.241Z,10.00
2018-07-26T00:50:31.618Z,11.63
2018-07-26T00:53:16.833Z,11.20
2018-07-26T00:55:58.319Z,10.00
2018-07-26T00:58:40.928Z,12.20
2018-07-26T01:01:23.037Z,9.40
2018-07-26T01:04:05.091Z,8.47
2018-07-26T01:06:46.616Z,11.07
2018-07-26T01:09:28.604Z,12.37
2018-07-26T01:12:10.090Z,9.63
2018-07-26T01:14:52.072Z,9.87
2018-07-26T01:17:34.176Z,7.83
2018-07-26T01:20:15.571Z,11.13
2018-07-26T01:22:57.325Z,8.63
2018-07-26T01:25:39.321Z,12.40
2018-07-26T01:28:21.597Z,15.67
2018-07-26T01:31:04.120Z,12.17
2018-07-26T01:33:46.747Z,12.30
2018-07-26T01:36:28.113Z,12.30
2018-07-26T01:39:10.486Z,13.30
2018-07-26T01:41:52.750Z,14.47
2018-07-26T01:44:36.932Z,12.50
2018-07-26T01:47:18.531Z,16.03
2018-07-26T01:49:59.983Z,13.20
2018-07-26T01:52:41.546Z,13.97
2018-07-26T01:55:22.907Z,10.67
2018-07-26T01:58:06.943Z,13.43
2018-07-26T02:04:10.506Z,20.10
2018-07-26T02:06:53.702Z,16.67
2018-07-26T02:09:35.227Z,15.47
2018-07-26T02:12:16.677Z,13.80
2018-07-26T02:14:58.917Z,14.93
2018-07-26T02:17:40.431Z,13.27
2018-07-26T02:20:22.479Z,14.83
2018-07-26T02:23:05.415Z,15.90
2018-07-26T02:25:47.490Z,12.43
2018-07-26T02:28:29.012Z,14.97
2018-07-26T02:31:11.702Z,13.33
2018-07-26T02:33:54.265Z,15.30
2018-07-26T02:36:35.650Z,14.13
2018-07-26T02:39:17.433Z,11.43
2018-07-26T02:41:58.786Z,11.37
2018-07-26T02:44:40.613Z,11.47
2018-07-26T02:47:23.142Z,11.30
2018-07-26T02:50:04.552Z,15.13
2018-07-26T02:52:46.011Z,9.97
2018-07-26T02:55:27.992Z,10.50
2018-07-26T02:58:09.459Z,9.67
2018-07-26T03:00:51.591Z,10.70
2018-07-26T03:03:33.857Z,9.00
2018-07-26T03:06:16.310Z,9.53
2018-07-26T03:08:57.639Z,9.07
2018-07-26T03:11:39.044Z,11.93
2018-07-26T03:14:22.532Z,10.10
2018-07-26T03:17:04.226Z,11.80
2018-07-26T03:19:45.757Z,10.90
2018-07-26T03:22:28.080Z,10.50
2018-07-26T03:25:09.287Z,10.63
2018-07-26T03:27:51.596Z,9.93
2018-07-26T03:30:33.084Z,12.00
2018-07-26T03:33:14.450Z,11.17
2018-07-26T03:35:56.446Z,11.20
2018-07-26T03:38:41.348Z,14.33
2018-07-26T03:41:24.367Z,10.37
2018-07-26T03:44:06.380Z,10.27
2018-07-26T03:46:47.891Z,14.30
2018-07-26T03:49:29.619Z,13.90
2018-07-26T03:52:11.008Z,11.13
2018-07-26T03:54:54.476Z,12.60
2018-07-26T03:57:40.943Z,16.13
2018-07-26T04:00:24.426Z,12.83
2018-07-26T04:03:06.539Z,13.77
2018-07-26T04:05:48.751Z,13.27
2018-07-26T04:08:31.186Z,18.23
2018-07-26T04:11:13.491Z,16.57
2018-07-26T04:13:56.116Z,15.90
2018-07-26T04:16:37.552Z,14.03
2018-07-26T04:19:18.908Z,13.20
2018-07-26T04:22:01.412Z,16.67
2018-07-26T04:24:42.811Z,11.57
2018-07-26T04:27:25.408Z,11.37
2018-07-26T04:30:11.144Z,15.27
2018-07-26T04:32:54.473Z,15.47
2018-07-26T04:35:36.292Z,14.50
2018-07-26T04:38:17.876Z,13.97
2018-07-26T04:41:00.788Z,17.67
2018-07-26T04:43:42.267Z,15.13
2018-07-26T04:46:25.636Z,17.13
2018-07-26T04:49:07.147Z,18.27
2018-07-26T04:51:48.969Z,19.87
2018-07-26T04:54:32.073Z,20.40
2018-07-26T04:57:13.330Z,16.37
2018-07-26T04:59:56.016Z,18.67
2018-07-26T05:02:38.380Z,17.27
2018-07-26T05:05:19.816Z,18.07
2018-07-26T05:08:01.750Z,15.77
2018-07-26T05:10:43.143Z,15.57
2018-07-26T05:13:25.304Z,19.13
2018-07-26T05:16:06.892Z,19.50
2018-07-26T05:18:48.330Z,20.37
2018-07-26T05:21:30.128Z,18.30
2018-07-26T05:24:11.775Z,20.67
2018-07-26T05:26:55.636Z,22.80
2018-07-26T05:29:37.811Z,16.03
2018-07-26T05:32:19.206Z,17.80
2018-07-26T05:35:01.679Z,16.13
2018-07-26T05:37:42.930Z,13.83
2018-07-26T05:40:25.748Z,16.83
2018-07-26T05:43:07.562Z,15.43
2018-07-26T05:45:49.151Z,18.20
2018-07-26T05:48:32.288Z,15.27
2018-07-26T05:51:13.771Z,20.17
2018-07-26T05:53:56.128Z,19.07
2018-07-26T05:56:38.675Z,22.13
2018-07-26T05:59:20.035Z,17.70
2018-07-26T06:02:01.468Z,18.20
2018-07-26T06:04:42.885Z,19.77
2018-07-26T06:07:25.601Z,20.60
2018-07-26T06:10:08.523Z,20.17
2018-07-26T06:12:50.119Z,18.53
2018-07-26T06:15:32.636Z,22.07
2018-07-26T06:18:14.038Z,27.50
2018-07-26T06:20:56.967Z,21.03
2018-07-26T06:23:38.163Z,25.80
2018-07-26T06:26:19.604Z,25.97
2018-07-26T06:29:01.652Z,22.77
2018-07-26T06:31:43.006Z,20.37
2018-07-26T06:34:25.907Z,25.97
2018-07-26T06:37:07.635Z,26.13
2018-07-26T06:39:49.083Z,24.97
2018-07-26T06:42:31.654Z,20.57
2018-07-26T06:45:13.017Z,24.10
2018-07-26T06:47:55.628Z,23.93
2018-07-26T06:50:37.211Z,21.30
2018-07-26T06:53:18.735Z,20.87
2018-07-26T06:56:00.208Z,22.93
2018-07-26T06:58:41.753Z,22.67
2018-07-26T07:01:25.492Z,25.63
2018-07-26T07:04:08.040Z,22.40
2018-07-26T07:06:50.272Z,25.33
2018-07-26T07:09:31.873Z,24.40
2018-07-26T07:12:13.705Z,22.00
2018-07-26T07:14:57.814Z,22.93
2018-07-26T07:17:39.128Z,19.93
2018-07-26T07:20:20.160Z,24.53
2018-07-26T07:23:03.007Z,22.07
2018-07-26T07:25:44.780Z,25.17
2018-07-26T07:28:27.219Z,21.70
2018-07-26T07:31:08.692Z,26.90
2018-07-26T07:33:50.300Z,29.90
2018-07-26T07:36:31.940Z,18.30
2018-07-26T07:39:14.816Z,25.37
2018-07-26T07:41:57.227Z,19.23
2018-07-26T07:44:38.570Z,20.00
2018-07-26T07:47:21.510Z,18.03
2018-07-26T07:50:03.033Z,23.47
2018-07-26T07:52:44.452Z,20.63
2018-07-26T07:55:26.832Z,24.17
2018-07-26T07:58:08.299Z,18.67
2018-07-26T08:00:49.999Z,17.97
2018-07-26T08:03:31.674Z,22.27
2018-07-26T08:06:13.169Z,14.57
2018-07-26T08:08:55.341Z,19.07
2018-07-26T08:11:38.336Z,18.60
2018-07-26T08:14:19.705Z,23.17
2018-07-26T08:17:02.405Z,17.37
2018-07-26T08:19:43.862Z,21.33
2018-07-26T08:22:25.961Z,22.17
2018-07-26T08:25:08.573Z,14.80
2018-07-26T08:27:50.028Z,17.00
2018-07-26T08:30:31.496Z,14.80
2018-07-26T08:33:12.929Z,20.77
2018-07-26T08:35:56.152Z,19.67
2018-07-26T08:38:37.800Z,16.10
2018-07-26T08:41:19.345Z,17.57
2018-07-26T08:44:01.696Z,20.30
2018-07-26T08:46:43.207Z,16.83
2018-07-26T08:49:25.605Z,16.77
2018-07-26T08:52:07.212Z,11.60
2018-07-26T08:54:49.107Z,13.13
2018-07-26T08:57:31.284Z,12.43
2018-07-26T09:00:16.285Z,10.83
2018-07-26T09:02:57.859Z,10.27
2018-07-26T09:05:39.214Z,11.67
2018-07-26T09:08:21.801Z,11.33
2018-07-26T09:11:04.557Z,15.23
2018-07-26T09:13:46.168Z,12.50
2018-07-26T09:16:27.706Z,13.00
2018-07-26T09:19:09.252Z,11.37
2018-07-26T09:21:51.513Z,10.10
2018-07-26T09:24:33.160Z,10.70
2018-07-26T09:27:14.504Z,13.20
2018-07-26T09:29:56.576Z,16.20
2018-07-26T09:32:39.877Z,12.13
2018-07-26T09:35:22.788Z,12.83
2018-07-26T09:38:04.362Z,15.33
2018-07-26T09:40:45.757Z,12.13
2018-07-26T09:43:27.177Z,13.17
2018-07-26T09:46:08.758Z,13.60
2018-07-26T09:48:51.791Z,12.17
2018-07-26T09:51:34.882Z,12.03
2018-07-26T09:54:17.255Z,9.53
2018-07-26T09:56:58.648Z,11.20
2018-07-26T09:59:41.613Z,12.30
2018-07-26T10:02:24.444Z,13.33
2018-07-26T10:05:06.737Z,15.73
2018-07-26T10:07:48.702Z,14.73
2018-07-26T10:10:31.716Z,11.93
2018-07-26T10:13:13.322Z,12.00
2018-07-26T10:15:55.632Z,13.60
2018-07-26T10:18:40.900Z,11.73
2018-07-26T10:21:24.526Z,13.50
2018-07-26T10:24:06.018Z,12.07
2018-07-26T10:26:47.273Z,12.07
2018-07-26T10:29:28.771Z,10.33
2018-07-26T10:32:10.445Z,10.37
2018-07-26T10:34:54.529Z,11.40
2018-07-26T10:37:36.170Z,12.20
2018-07-26T10:40:17.625Z,9.40
2018-07-26T10:42:59.648Z,9.80
2018-07-26T10:45:41.140Z,9.30
2018-07-26T10:48:24.692Z,8.63
2018-07-26T10:51:06.149Z,8.40
2018-07-26T10:53:47.568Z,9.80
2018-07-26T10:56:29.314Z,9.33
2018-07-26T10:59:10.649Z,10.23
2018-07-26T11:01:54.492Z,10.00
2018-07-26T11:04:35.925Z,8.20
2018-07-26T11:07:17.444Z,7.00
2018-07-26T11:09:59.806Z,6.20
2018-07-26T11:12:41.189Z,8.23
2018-07-26T11:15:29.575Z,7.67
2018-07-26T11:18:11.517Z,6.37
2018-07-26T11:20:54.831Z,8.47
2018-07-26T11:23:36.213Z,6.93
2018-07-26T11:26:17.748Z,23.33
2018-07-26T11:28:59.041Z,12.40
2018-07-26T11:31:40.450Z,8.50
2018-07-26T11:34:23.096Z,6.80
2018-07-26T11:37:05.113Z,7.83
2018-07-26T11:39:46.710Z,7.03
2018-07-26T11:42:28.059Z,6.83
2018-07-26T11:45:10.761Z,7.13
2018-07-26T11:47:54.728Z,7.27
2018-07-26T11:50:36.120Z,7.83
2018-07-26T11:53:17.232Z,8.13
2018-07-26T11:55:58.577Z,8.60
2018-07-26T11:58:40.621Z,10.27
2018-07-26T12:01:23.276Z,7.57
2018-07-26T12:04:04.846Z,8.07
2018-07-26T12:06:46.316Z,10.30
2018-07-26T12:09:27.872Z,7.73
2018-07-26T12:12:10.546Z,5.47
2018-07-26T12:14:53.134Z,8.50
2018-07-26T12:17:34.650Z,7.07
2018-07-26T12:20:16.077Z,7.20
2018-07-26T12:22:57.548Z,7.67
2018-07-26T12:25:38.941Z,9.57
2018-07-26T12:28:21.828Z,8.40
2018-07-26T12:31:04.368Z,8.47
2018-07-26T12:33:45.645Z,8.13
2018-07-26T12:36:27.364Z,7.23
2018-07-26T12:39:11.448Z,7.80
2018-07-26T12:41:55.690Z,7.70
2018-07-26T12:44:37.016Z,7.67
2018-07-26T12:47:18.422Z,8.13
2018-07-26T12:49:59.987Z,8.83
2018-07-26T12:52:41.421Z,10.47
2018-07-26T12:55:24.631Z,8.20
2018-07-26T12:58:05.925Z,8.10
2018-07-26T13:00:47.206Z,12.10
2018-07-26T13:03:28.568Z,7.60
2018-07-26T13:06:09.948Z,7.83
2018-07-26T13:08:51.860Z,8.90
2018-07-26T13:11:34.104Z,8.83
2018-07-26T13:14:15.517Z,8.03
2018-07-26T13:16:57.465Z,10.43
2018-07-26T13:19:38.902Z,11.20
2018-07-26T13:22:21.658Z,10.60
2018-07-26T13:25:03.029Z,11.97
2018-07-26T13:27:44.549Z,8.67
2018-07-26T13:30:26.687Z,7.93
2018-07-26T13:33:08.862Z,11.67
2018-07-26T13:35:50.985Z,10.50
2018-07-26T13:38:35.169Z,8.43
2018-07-26T13:41:19.429Z,12.37
2018-07-26T13:44:01.569Z,9.83
2018-07-26T13:46:42.964Z,8.33
2018-07-26T13:49:25.674Z,8.40
2018-07-26T13:52:07.482Z,8.30
2018-07-26T13:54:48.880Z,7.90
2018-07-26T13:57:30.296Z,4.53
2018-07-26T14:00:14.492Z,5.80
2018-07-26T14:02:57.452Z,6.63
2018-07-26T14:05:39.012Z,11.10
2018-07-26T14:08:21.896Z,14.97
2018-07-26T14:11:03.331Z,11.20
2018-07-26T14:13:44.877Z,15.23
2018-07-26T14:16:27.255Z,7.03
2018-07-26T14:19:09.773Z,7.47
2018-07-26T14:21:51.887Z,8.00
2018-07-26T14:24:33.817Z,15.27
2018-07-26T14:27:15.272Z,12.13
2018-07-26T14:29:58.056Z,10.47
2018-07-26T14:32:39.499Z,9.87
2018-07-26T14:35:21.773Z,10.50
2018-07-26T14:38:03.108Z,10.57
2018-07-26T14:40:44.605Z,8.50
2018-07-26T14:43:27.242Z,8.20
2018-07-26T14:46:08.917Z,8.80
2018-07-26T14:48:50.459Z,10.70
2018-07-26T14:51:31.907Z,9.30
2018-07-26T14:54:14.140Z,8.77
2018-07-26T14:56:56.181Z,7.57
2018-07-26T14:59:37.558Z,9.13
2018-07-26T15:02:19.949Z,8.07
2018-07-26T15:05:01.845Z,14.37
2018-07-26T15:07:43.272Z,9.30
2018-07-26T15:10:26.028Z,8.50
2018-07-26T15:13:07.285Z,8.87
2018-07-26T15:15:48.726Z,9.93
2018-07-26T15:18:30.577Z,8.47
2018-07-26T15:21:12.842Z,10.27
2018-07-26T15:23:55.787Z,10.93
2018-07-26T15:26:37.723Z,8.30
2018-07-26T15:29:19.316Z,7.83
2018-07-26T15:32:01.399Z,9.00
2018-07-26T15:34:43.165Z,10.63
2018-07-26T15:37:25.620Z,8.23
2018-07-26T15:40:08.065Z,7.83
2018-07-26T15:42:49.925Z,9.83
2018-07-26T15:45:32.198Z,9.60
2018-07-26T15:48:13.774Z,8.20
2018-07-26T15:50:59.120Z,8.23
2018-07-26T15:53:41.057Z,8.03
2018-07-26T15:56:23.375Z,7.07
2018-07-26T15:59:04.988Z,7.07
2018-07-26T16:01:46.485Z,7.77
2018-07-26T16:04:27.705Z,8.17
2018-07-26T16:07:08.985Z,8.57
2018-07-26T16:09:51.889Z,10.43
2018-07-26T16:12:46.098Z,10.13
2018-07-26T16:15:30.313Z,8.03
2018-07-26T16:18:15.245Z,7.53
2018-07-26T16:20:57.356Z,8.03
2018-07-26T16:23:41.881Z,7.40
2018-07-26T16:26:23.928Z,9.00
2018-07-26T16:29:06.545Z,7.47
2018-07-26T16:31:48.689Z,8.37
2018-07-26T16:34:31.274Z,11.67
2018-07-26T16:37:13.090Z,9.03
2018-07-26T16:39:54.768Z,11.33
2018-07-26T16:42:36.179Z,9.33
2018-07-26T16:45:17.589Z,11.23
2018-07-26T16:47:59.048Z,15.07
2018-07-26T16:50:40.804Z,9.13
2018-07-26T16:53:22.591Z,9.40
2018-07-26T16:56:05.475Z,13.20
2018-07-26T16:58:47.475Z,11.33
2018-07-26T17:01:28.926Z,9.87
2018-07-26T17:04:10.411Z,10.77
2018-07-26T17:06:52.839Z,8.70
2018-07-26T17:09:34.900Z,12.13
2018-07-26T17:12:16.463Z,12.00
2018-07-26T17:14:57.959Z,10.60
2018-07-26T17:17:52.983Z,9.00
2018-07-26T17:20:38.236Z,13.47
2018-07-26T17:23:20.643Z,9.40
2018-07-26T17:26:04.128Z,10.60
2018-07-26T17:28:45.630Z,9.60
2018-07-26T17:31:27.148Z,9.27
2018-07-26T17:34:08.640Z,13.00
2018-07-26T17:36:50.953Z,11.83
2018-07-26T17:39:33.614Z,10.13
2018-07-26T17:42:15.245Z,11.03
2018-07-26T17:44:57.190Z,13.53
2018-07-26T17:47:38.760Z,12.37
2018-07-26T17:50:20.677Z,13.87
2018-07-26T17:53:18.663Z,11.03
2018-07-26T17:56:00.212Z,14.03
2018-07-26T17:58:42.987Z,16.73
2018-07-26T18:01:24.384Z,14.97
2018-07-26T18:04:06.496Z,16.63
2018-07-26T18:06:47.954Z,18.73
2018-07-26T18:09:29.369Z,14.60
2018-07-26T18:12:11.459Z,13.60
2018-07-26T18:14:53.023Z,14.97
2018-07-26T18:17:35.847Z,15.13
2018-07-26T18:20:17.425Z,16.27
2018-07-26T18:22:58.999Z,17.97
2018-07-26T18:25:41.351Z,15.83
2018-07-26T18:28:22.801Z,15.97
2018-07-26T18:31:05.390Z,17.87
2018-07-26T18:33:48.244Z,15.47
2018-07-26T18:36:29.544Z,17.27
2018-07-26T18:39:13.433Z,14.90
2018-07-26T18:41:55.093Z,15.67
2018-07-26T18:44:37.053Z,16.73
2018-07-26T18:47:19.812Z,17.20
2018-07-26T18:50:02.423Z,14.57
2018-07-26T18:52:44.047Z,15.97
2018-07-26T18:55:25.452Z,13.70
2018-07-26T18:58:07.412Z,15.30
2018-07-26T19:00:49.700Z,15.03
2018-07-26T19:03:32.347Z,19.10
2018-07-26T19:06:14.345Z,14.83
2018-07-26T19:08:57.675Z,13.50
2018-07-26T19:11:42.209Z,21.97
2018-07-26T19:14:23.993Z,15.60
2018-07-26T19:17:06.548Z,13.73
2018-07-26T19:20:20.365Z,18.00
2018-07-26T19:23:01.909Z,19.37
2018-07-26T19:25:45.089Z,21.93
2018-07-26T19:28:27.060Z,16.07
2018-07-26T19:31:09.568Z,14.07
2018-07-26T19:33:51.592Z,17.27
2018-07-26T19:36:33.055Z,15.03
2018-07-26T19:39:14.760Z,15.87
2018-07-26T19:41:56.997Z,16.60
2018-07-26T19:44:40.209Z,15.03
2018-07-26T19:47:21.695Z,14.03
2018-07-26T19:50:03.297Z,15.00
2018-07-26T19:52:46.128Z,14.47
2018-07-26T19:55:27.613Z,14.97
2018-07-26T19:58:09.989Z,14.83
2018-07-26T20:01:05.560Z,13.97
2018-07-26T20:03:48.090Z,17.13
2018-07-26T20:06:29.548Z,15.60
2018-07-26T20:09:11.936Z,16.17
2018-07-26T20:12:00.312Z,15.13
2018-07-26T20:20:34.146Z,15.27
2018-07-26T20:23:16.534Z,13.70
2018-07-26T20:25:57.977Z,21.90
2018-07-26T20:28:43.944Z,14.17
2018-07-26T20:31:26.364Z,15.07
2018-07-26T20:34:08.001Z,13.50
2018-07-26T20:36:49.594Z,13.67
2018-07-26T20:39:31.011Z,12.00
2018-07-26T20:42:13.563Z,12.80
2018-07-26T20:44:54.973Z,14.43
2018-07-26T20:47:36.379Z,12.73
2018-07-26T20:50:18.833Z,13.70
2018-07-26T20:53:00.498Z,16.67
2018-07-26T20:55:41.958Z,16.03
2018-07-26T20:58:24.315Z,14.83
2018-07-26T21:01:05.886Z,16.13
2018-07-26T21:03:48.498Z,20.73
2018-07-26T21:06:30.060Z,20.40
2018-07-26T21:09:13.753Z,16.90
2018-07-26T21:11:55.335Z,16.33
2018-07-26T21:14:36.821Z,16.43
2018-07-26T21:17:18.966Z,17.73
2018-07-26T21:20:03.483Z,18.00
2018-07-26T21:22:46.661Z,15.60
2018-07-26T21:25:28.228Z,14.93
2018-07-26T21:28:09.853Z,19.23
2018-07-26T21:30:52.396Z,16.13
2018-07-26T21:33:33.939Z,16.00
2018-07-26T21:36:16.772Z,16.10
2018-07-26T21:38:58.222Z,16.70
2018-07-26T21:41:40.351Z,15.73
2018-07-26T21:44:21.746Z,16.43
2018-07-26T21:47:03.573Z,19.83
2018-07-26T21:49:49.935Z,12.97
2018-07-26T21:52:31.455Z,16.73
2018-07-26T21:55:13.179Z,16.70
2018-07-26T21:57:55.140Z,17.30
2018-07-26T22:00:42.071Z,15.67
2018-07-26T22:03:23.676Z,18.10
2018-07-26T22:06:06.488Z,16.13
2018-07-26T22:08:49.888Z,15.63
2018-07-26T22:11:31.425Z,18.23
2018-07-26T22:14:12.812Z,13.30
2018-07-26T22:16:55.005Z,12.87
2018-07-26T22:19:36.440Z,15.83
2018-07-26T22:22:19.686Z,15.13
2018-07-26T22:25:01.624Z,14.27
2018-07-26T22:27:42.922Z,14.33
2018-07-26T22:30:26.213Z,16.10
2018-07-26T22:33:08.692Z,17.33
2018-07-26T22:35:51.038Z,15.93
2018-07-26T22:38:33.093Z,17.03
2018-07-26T22:41:15.137Z,16.03
2018-07-26T22:43:57.730Z,16.13
2018-07-26T22:46:38.918Z,16.07
2018-07-26T22:49:22.602Z,17.33
2018-07-26T22:52:04.111Z,16.97
2018-07-26T22:54:45.545Z,16.40
2018-07-26T22:57:27.334Z,17.20
2018-07-26T23:00:09.194Z,16.90
2018-07-26T23:02:52.507Z,16.27
2018-07-26T23:05:33.917Z,15.97
2018-07-26T23:08:16.653Z,18.40
2018-07-26T23:10:58.473Z,16.73
2018-07-26T23:13:40.000Z,19.73
2018-07-26T23:16:21.999Z,18.63
2018-07-26T23:19:04.991Z,19.93
2018-07-26T23:21:48.651Z,17.73
2018-07-26T23:24:30.922Z,19.87
2018-07-26T23:27:12.709Z,20.30
2018-07-26T23:29:55.113Z,18.83
2018-07-26T23:32:36.521Z,19.63
2018-07-26T23:35:17.979Z,23.53
2018-07-26T23:37:59.613Z,19.13
2018-07-26T23:40:41.954Z,18.17
2018-07-26T23:43:24.878Z,19.97
2018-07-26T23:46:07.309Z,22.07
2018-07-26T23:48:51.034Z,23.23
2018-07-26T23:51:33.396Z,24.03
2018-07-26T23:54:14.876Z,25.63
2018-07-26T23:56:57.196Z,23.27
2018-07-26T23:59:38.676Z,25.33
